sensor_id;sensor_type;location;lat;lon;timestamp;P1;durP1;ratioP1;P2;durP2;ratioP2
30096;SDS011;16915;51.466;3.610;2022-10-18T00:00:33;11.40;;;6.32;;
30096;SDS011;16915;51.466;3.610;2022-10-18T00:03:28;8.95;;;5.38;;
30096;SDS011;16915;51.466;3.610;2022-10-18T00:05:54;8.68;;;5.32;;
30096;SDS011;16915;51.466;3.610;2022-10-18T00:08:42;8.43;;;5.13;;
30096;SDS011;16915;51.466;3.610;2022-10-18T00:11:21;9.98;;;5.40;;
30096;SDS011;16915;51.466;3.610;2022-10-18T00:14:05;12.60;;;6.18;;
30096;SDS011;16915;51.466;3.610;2022-10-18T00:16:40;7.82;;;5.55;;
30096;SDS011;16915;51.466;3.610;2022-10-18T00:19:12;10.63;;;4.95;;
30096;SDS011;16915;51.466;3.610;2022-10-18T00:21:40;11.80;;;5.30;;
30096;SDS011;16915;51.466;3.610;2022-10-18T00:24:07;7.70;;;5.13;;
30096;SDS011;16915;51.466;3.610;2022-10-18T00:26:37;10.93;;;6.07;;
30096;SDS011;16915;51.466;3.610;2022-10-18T00:29:06;12.15;;;5.80;;
30096;SDS011;16915;51.466;3.610;2022-10-18T00:31:39;10.02;;;5.30;;
30096;SDS011;16915;51.466;3.610;2022-10-18T00:34:09;11.55;;;5.65;;
30096;SDS011;16915;51.466;3.610;2022-10-18T00:36:40;9.10;;;5.25;;
30096;SDS011;16915;51.466;3.610;2022-10-18T00:39:14;6.97;;;4.53;;
30096;SDS011;16915;51.466;3.610;2022-10-18T00:41:51;7.60;;;5.72;;
30096;SDS011;16915;51.466;3.610;2022-10-18T00:48:00;7.65;;;4.88;;
30096;SDS011;16915;51.466;3.610;2022-10-18T00:50:30;13.82;;;4.53;;
30096;SDS011;16915;51.466;3.610;2022-10-18T00:53:02;7.25;;;5.07;;
30096;SDS011;16915;51.466;3.610;2022-10-18T00:55:31;8.50;;;5.40;;
30096;SDS011;16915;51.466;3.610;2022-10-18T00:58:00;12.18;;;5.35;;
30096;SDS011;16915;51.466;3.610;2022-10-18T01:00:51;8.93;;;4.72;;
30096;SDS011;16915;51.466;3.610;2022-10-18T01:03:18;8.75;;;5.22;;
30096;SDS011;16915;51.466;3.610;2022-10-18T01:05:55;8.65;;;4.97;;
30096;SDS011;16915;51.466;3.610;2022-10-18T01:17:44;8.20;;;5.45;;
30096;SDS011;16915;51.466;3.610;2022-10-18T01:21:08;7.03;;;5.00;;
30096;SDS011;16915;51.466;3.610;2022-10-18T01:29:39;8.60;;;5.07;;
30096;SDS011;16915;51.466;3.610;2022-10-18T01:32:09;8.30;;;5.65;;
30096;SDS011;16915;51.466;3.610;2022-10-18T01:34:41;9.02;;;4.97;;
30096;SDS011;16915;51.466;3.610;2022-10-18T01:37:10;7.00;;;5.15;;
30096;SDS011;16915;51.466;3.610;2022-10-18T01:39:42;9.75;;;5.50;;
30096;SDS011;16915;51.466;3.610;2022-10-18T01:42:13;10.48;;;5.38;;
30096;SDS011;16915;51.466;3.610;2022-10-18T01:44:42;11.75;;;5.90;;
30096;SDS011;16915;51.466;3.610;2022-10-18T01:47:11;7.15;;;5.10;;
30096;SDS011;16915;51.466;3.610;2022-10-18T01:49:40;8.40;;;5.50;;
30096;SDS011;16915;51.466;3.610;2022-10-18T01:52:12;6.25;;;5.65;;
30096;SDS011;16915;51.466;3.610;2022-10-18T01:54:44;9.35;;;5.88;;
30096;SDS011;16915;51.466;3.610;2022-10-18T02:00:58;8.60;;;5.72;;
30096;SDS011;16915;51.466;3.610;2022-10-18T02:03:15;14.82;;;6.60;;
30096;SDS011;16915;51.466;3.610;2022-10-18T02:06:11;9.45;;;6.30;;
30096;SDS011;16915;51.466;3.610;2022-10-18T02:09:24;11.57;;;6.95;;
30096;SDS011;16915;51.466;3.610;2022-10-18T02:12:28;13.30;;;7.30;;
30096;SDS011;16915;51.466;3.610;2022-10-18T02:17:37;8.73;;;7.35;;
30096;SDS011;16915;51.466;3.610;2022-10-18T02:20:38;14.93;;;7.30;;
30096;SDS011;16915;51.466;3.610;2022-10-18T02:23:42;20.10;;;8.60;;
30096;SDS011;16915;51.466;3.610;2022-10-18T02:26:55;13.43;;;8.20;;
30096;SDS011;16915;51.466;3.610;2022-10-18T02:29:32;13.18;;;7.80;;
30096;SDS011;16915;51.466;3.610;2022-10-18T02:35:58;10.85;;;7.47;;
30096;SDS011;16915;51.466;3.610;2022-10-18T02:38:23;20.45;;;8.40;;
30096;SDS011;16915;51.466;3.610;2022-10-18T02:40:55;12.95;;;7.47;;
30096;SDS011;16915;51.466;3.610;2022-10-18T02:43:54;11.75;;;7.55;;
30096;SDS011;16915;51.466;3.610;2022-10-18T02:47:06;15.40;;;7.75;;
30096;SDS011;16915;51.466;3.610;2022-10-18T02:50:13;14.55;;;8.82;;
30096;SDS011;16915;51.466;3.610;2022-10-18T02:53:20;12.07;;;8.10;;
30096;SDS011;16915;51.466;3.610;2022-10-18T02:56:29;16.83;;;7.97;;
30096;SDS011;16915;51.466;3.610;2022-10-18T03:02:23;16.90;;;8.65;;
30096;SDS011;16915;51.466;3.610;2022-10-18T03:15:15;12.45;;;8.43;;
30096;SDS011;16915;51.466;3.610;2022-10-18T03:18:49;13.35;;;8.23;;
30096;SDS011;16915;51.466;3.610;2022-10-18T03:24:43;13.38;;;8.25;;
30096;SDS011;16915;51.466;3.610;2022-10-18T03:33:34;15.60;;;8.20;;
30096;SDS011;16915;51.466;3.610;2022-10-18T03:36:58;15.95;;;7.75;;
30096;SDS011;16915;51.466;3.610;2022-10-18T03:53:14;14.48;;;6.43;;
30096;SDS011;16915;51.466;3.610;2022-10-18T07:52:40;22.58;;;9.82;;
30096;SDS011;16915;51.466;3.610;2022-10-18T07:55:25;23.55;;;10.35;;
30096;SDS011;16915;51.466;3.610;2022-10-18T07:58:34;18.13;;;9.27;;
30096;SDS011;16915;51.466;3.610;2022-10-18T08:01:08;20.65;;;8.77;;
30096;SDS011;16915;51.466;3.610;2022-10-18T08:03:51;22.00;;;7.28;;
30096;SDS011;16915;51.466;3.610;2022-10-18T08:06:46;15.73;;;7.53;;
30096;SDS011;16915;51.466;3.610;2022-10-18T08:09:14;17.77;;;7.32;;
30096;SDS011;16915;51.466;3.610;2022-10-18T08:11:48;23.73;;;8.23;;
30096;SDS011;16915;51.466;3.610;2022-10-18T08:14:18;21.48;;;7.63;;
30096;SDS011;16915;51.466;3.610;2022-10-18T08:16:51;26.95;;;7.68;;
30096;SDS011;16915;51.466;3.610;2022-10-18T08:19:24;25.67;;;7.13;;
30096;SDS011;16915;51.466;3.610;2022-10-18T08:21:58;28.63;;;7.38;;
30096;SDS011;16915;51.466;3.610;2022-10-18T08:24:51;15.35;;;6.00;;
30096;SDS011;16915;51.466;3.610;2022-10-18T08:27:43;21.15;;;6.22;;
30096;SDS011;16915;51.466;3.610;2022-10-18T08:30:21;29.67;;;5.75;;
30096;SDS011;16915;51.466;3.610;2022-10-18T08:32:57;25.02;;;5.78;;
30096;SDS011;16915;51.466;3.610;2022-10-18T08:35:53;20.65;;;4.32;;
30096;SDS011;16915;51.466;3.610;2022-10-18T08:38:43;18.25;;;3.78;;
30096;SDS011;16915;51.466;3.610;2022-10-18T08:45:05;17.70;;;3.65;;
30096;SDS011;16915;51.466;3.610;2022-10-18T08:48:15;25.40;;;3.10;;
30096;SDS011;16915;51.466;3.610;2022-10-18T08:52:12;24.73;;;3.28;;
30096;SDS011;16915;51.466;3.610;2022-10-18T08:54:32;18.65;;;3.10;;
30096;SDS011;16915;51.466;3.610;2022-10-18T08:57:56;13.02;;;2.90;;
30096;SDS011;16915;51.466;3.610;2022-10-18T09:24:36;13.43;;;2.03;;
30096;SDS011;16915;51.466;3.610;2022-10-18T09:27:33;16.58;;;1.48;;
30096;SDS011;16915;51.466;3.610;2022-10-18T09:30:37;11.48;;;1.83;;
30096;SDS011;16915;51.466;3.610;2022-10-18T09:33:23;10.55;;;2.15;;
30096;SDS011;16915;51.466;3.610;2022-10-18T09:36:20;19.05;;;2.28;;
30096;SDS011;16915;51.466;3.610;2022-10-18T09:39:01;12.02;;;1.42;;
30096;SDS011;16915;51.466;3.610;2022-10-18T09:44:26;10.13;;;1.77;;
30096;SDS011;16915;51.466;3.610;2022-10-18T09:47:07;6.47;;;1.20;;
30096;SDS011;16915;51.466;3.610;2022-10-18T09:49:53;10.55;;;1.42;;
30096;SDS011;16915;51.466;3.610;2022-10-18T09:52:31;7.25;;;1.33;;
30096;SDS011;16915;51.466;3.610;2022-10-18T09:55:20;6.03;;;1.13;;
30096;SDS011;16915;51.466;3.610;2022-10-18T09:57:53;8.88;;;0.90;;
30096;SDS011;16915;51.466;3.610;2022-10-18T10:00:25;9.60;;;1.92;;
30096;SDS011;16915;51.466;3.610;2022-10-18T10:03:00;3.47;;;1.08;;
30096;SDS011;16915;51.466;3.610;2022-10-18T10:05:31;6.05;;;1.13;;
30096;SDS011;16915;51.466;3.610;2022-10-18T10:07:57;5.55;;;1.40;;
30096;SDS011;16915;51.466;3.610;2022-10-18T10:10:27;8.23;;;1.40;;
30096;SDS011;16915;51.466;3.610;2022-10-18T10:13:04;8.05;;;1.40;;
30096;SDS011;16915;51.466;3.610;2022-10-18T10:15:50;6.80;;;1.08;;
30096;SDS011;16915;51.466;3.610;2022-10-18T10:18:32;5.30;;;1.30;;
30096;SDS011;16915;51.466;3.610;2022-10-18T10:21:12;9.40;;;1.60;;
30096;SDS011;16915;51.466;3.610;2022-10-18T10:23:44;5.10;;;1.20;;
30096;SDS011;16915;51.466;3.610;2022-10-18T10:26:27;4.97;;;1.00;;
30096;SDS011;16915;51.466;3.610;2022-10-18T10:28:57;3.53;;;1.00;;
30096;SDS011;16915;51.466;3.610;2022-10-18T10:33:57;3.93;;;0.97;;
30096;SDS011;16915;51.466;3.610;2022-10-18T10:36:30;4.28;;;1.20;;
30096;SDS011;16915;51.466;3.610;2022-10-18T10:39:09;3.75;;;1.00;;
30096;SDS011;16915;51.466;3.610;2022-10-18T10:41:37;2.13;;;0.80;;
30096;SDS011;16915;51.466;3.610;2022-10-18T10:44:12;5.30;;;1.20;;
30096;SDS011;16915;51.466;3.610;2022-10-18T10:46:44;2.95;;;1.00;;
30096;SDS011;16915;51.466;3.610;2022-10-18T10:52:03;7.53;;;1.50;;
30096;SDS011;16915;51.466;3.610;2022-10-18T10:54:47;4.50;;;1.00;;
30096;SDS011;16915;51.466;3.610;2022-10-18T10:59:41;5.65;;;0.98;;
30096;SDS011;16915;51.466;3.610;2022-10-18T11:04:45;4.38;;;1.10;;
30096;SDS011;16915;51.466;3.610;2022-10-18T11:10:03;8.35;;;1.50;;
30096;SDS011;16915;51.466;3.610;2022-10-18T11:12:46;4.80;;;1.10;;
30096;SDS011;16915;51.466;3.610;2022-10-18T11:15:29;6.20;;;1.15;;
30096;SDS011;16915;51.466;3.610;2022-10-18T11:18:10;6.18;;;1.27;;
30096;SDS011;16915;51.466;3.610;2022-10-18T11:21:08;5.15;;;1.10;;
30096;SDS011;16915;51.466;3.610;2022-10-18T11:23:44;3.15;;;1.23;;
30096;SDS011;16915;51.466;3.610;2022-10-18T11:31:37;8.35;;;1.70;;
30096;SDS011;16915;51.466;3.610;2022-10-18T11:43:09;4.95;;;1.00;;
30096;SDS011;16915;51.466;3.610;2022-10-18T11:46:03;5.07;;;1.30;;
30096;SDS011;16915;51.466;3.610;2022-10-18T11:48:48;6.10;;;1.20;;
30096;SDS011;16915;51.466;3.610;2022-10-18T11:54:32;4.55;;;1.00;;
30096;SDS011;16915;51.466;3.610;2022-10-18T12:05:44;4.35;;;1.10;;
30096;SDS011;16915;51.466;3.610;2022-10-18T12:11:23;3.55;;;1.10;;
30096;SDS011;16915;51.466;3.610;2022-10-18T12:13:56;4.72;;;1.25;;
30096;SDS011;16915;51.466;3.610;2022-10-18T12:16:28;4.72;;;1.10;;
30096;SDS011;16915;51.466;3.610;2022-10-18T12:19:01;5.55;;;1.52;;
30096;SDS011;16915;51.466;3.610;2022-10-18T12:21:34;3.95;;;0.80;;
30096;SDS011;16915;51.466;3.610;2022-10-18T12:24:02;5.30;;;1.02;;
30096;SDS011;16915;51.466;3.610;2022-10-18T12:26:29;7.68;;;1.25;;
30096;SDS011;16915;51.466;3.610;2022-10-18T12:32:11;3.13;;;1.05;;
30096;SDS011;16915;51.466;3.610;2022-10-18T12:35:17;6.03;;;1.13;;
30096;SDS011;16915;51.466;3.610;2022-10-18T12:37:52;5.85;;;1.13;;
30096;SDS011;16915;51.466;3.610;2022-10-18T12:40:40;4.80;;;1.23;;
30096;SDS011;16915;51.466;3.610;2022-10-18T12:43:22;4.85;;;1.30;;
30096;SDS011;16915;51.466;3.610;2022-10-18T12:46:04;7.35;;;1.35;;
30096;SDS011;16915;51.466;3.610;2022-10-18T12:48:36;5.78;;;1.02;;
30096;SDS011;16915;51.466;3.610;2022-10-18T12:51:22;6.53;;;1.33;;
30096;SDS011;16915;51.466;3.610;2022-10-18T12:53:50;4.97;;;1.40;;
30096;SDS011;16915;51.466;3.610;2022-10-18T12:56:40;5.22;;;1.27;;
30096;SDS011;16915;51.466;3.610;2022-10-18T13:09:35;3.65;;;1.10;;
30096;SDS011;16915;51.466;3.610;2022-10-18T13:14:41;4.10;;;1.02;;
30096;SDS011;16915;51.466;3.610;2022-10-18T13:17:34;3.78;;;1.35;;
30096;SDS011;16915;51.466;3.610;2022-10-18T13:31:03;3.45;;;0.95;;
30096;SDS011;16915;51.466;3.610;2022-10-18T13:33:45;7.00;;;0.80;;
30096;SDS011;16915;51.466;3.610;2022-10-18T13:36:24;3.80;;;0.93;;
30096;SDS011;16915;51.466;3.610;2022-10-18T13:41:27;4.30;;;1.13;;
30096;SDS011;16915;51.466;3.610;2022-10-18T13:43:56;6.30;;;0.88;;
30096;SDS011;16915;51.466;3.610;2022-10-18T14:08:02;5.43;;;1.38;;
30096;SDS011;16915;51.466;3.610;2022-10-18T14:10:39;4.88;;;0.80;;
30096;SDS011;16915;51.466;3.610;2022-10-18T14:13:25;4.20;;;0.85;;
30096;SDS011;16915;51.466;3.610;2022-10-18T14:15:58;4.57;;;0.95;;
30096;SDS011;16915;51.466;3.610;2022-10-18T14:18:31;3.58;;;0.57;;
30096;SDS011;16915;51.466;3.610;2022-10-18T14:21:02;4.78;;;0.80;;
30096;SDS011;16915;51.466;3.610;2022-10-18T14:23:33;5.80;;;0.60;;
30096;SDS011;16915;51.466;3.610;2022-10-18T14:26:10;4.63;;;0.95;;
30096;SDS011;16915;51.466;3.610;2022-10-18T14:28:42;3.72;;;0.90;;
30096;SDS011;16915;51.466;3.610;2022-10-18T14:31:26;8.73;;;0.70;;
30096;SDS011;16915;51.466;3.610;2022-10-18T14:33:53;5.05;;;0.90;;
30096;SDS011;16915;51.466;3.610;2022-10-18T14:36:21;7.32;;;0.90;;
30096;SDS011;16915;51.466;3.610;2022-10-18T14:39:02;7.07;;;0.63;;
30096;SDS011;16915;51.466;3.610;2022-10-18T14:44:30;5.05;;;0.68;;
30096;SDS011;16915;51.466;3.610;2022-10-18T14:47:08;3.75;;;1.20;;
30096;SDS011;16915;51.466;3.610;2022-10-18T14:49:48;5.03;;;0.50;;
30096;SDS011;16915;51.466;3.610;2022-10-18T14:52:16;8.63;;;0.75;;
30096;SDS011;16915;51.466;3.610;2022-10-18T14:54:44;2.15;;;0.75;;
30096;SDS011;16915;51.466;3.610;2022-10-18T14:57:18;6.38;;;1.48;;
30096;SDS011;16915;51.466;3.610;2022-10-18T14:59:49;3.28;;;0.80;;
30096;SDS011;16915;51.466;3.610;2022-10-18T15:02:26;5.72;;;0.70;;
30096;SDS011;16915;51.466;3.610;2022-10-18T15:04:59;5.28;;;0.70;;
30096;SDS011;16915;51.466;3.610;2022-10-18T15:07:31;1.85;;;0.50;;
30096;SDS011;16915;51.466;3.610;2022-10-18T15:10:00;7.85;;;0.98;;
30096;SDS011;16915;51.466;3.610;2022-10-18T15:12:28;4.88;;;1.02;;
30096;SDS011;16915;51.466;3.610;2022-10-18T15:14:55;5.45;;;0.98;;
30096;SDS011;16915;51.466;3.610;2022-10-18T15:17:26;7.88;;;0.95;;
30096;SDS011;16915;51.466;3.610;2022-10-18T15:22:49;3.83;;;0.75;;
30096;SDS011;16915;51.466;3.610;2022-10-18T15:27:57;3.85;;;0.90;;
30096;SDS011;16915;51.466;3.610;2022-10-18T15:30:26;3.25;;;0.80;;
30096;SDS011;16915;51.466;3.610;2022-10-18T15:32:57;3.17;;;1.13;;
30096;SDS011;16915;51.466;3.610;2022-10-18T15:35:33;2.28;;;0.50;;
30096;SDS011;16915;51.466;3.610;2022-10-18T15:38:12;5.68;;;0.70;;
30096;SDS011;16915;51.466;3.610;2022-10-18T15:40:49;7.07;;;1.00;;
30096;SDS011;16915;51.466;3.610;2022-10-18T15:45:50;3.83;;;0.47;;
30096;SDS011;16915;51.466;3.610;2022-10-18T15:48:33;5.57;;;0.80;;
30096;SDS011;16915;51.466;3.610;2022-10-18T15:51:06;5.68;;;0.90;;
30096;SDS011;16915;51.466;3.610;2022-10-18T15:58:58;3.83;;;0.60;;
30096;SDS011;16915;51.466;3.610;2022-10-18T16:01:44;7.78;;;0.75;;
30096;SDS011;16915;51.466;3.610;2022-10-18T16:04:24;5.95;;;0.73;;
30096;SDS011;16915;51.466;3.610;2022-10-18T16:06:54;1.58;;;0.47;;
30096;SDS011;16915;51.466;3.610;2022-10-18T16:09:21;4.05;;;0.60;;
30096;SDS011;16915;51.466;3.610;2022-10-18T16:11:51;5.18;;;0.80;;
30096;SDS011;16915;51.466;3.610;2022-10-18T16:14:17;5.13;;;1.17;;
30096;SDS011;16915;51.466;3.610;2022-10-18T16:16:44;3.85;;;0.70;;
30096;SDS011;16915;51.466;3.610;2022-10-18T16:19:14;4.55;;;1.13;;
30096;SDS011;16915;51.466;3.610;2022-10-18T16:21:42;7.65;;;0.80;;
30096;SDS011;16915;51.466;3.610;2022-10-18T16:24:09;4.43;;;0.95;;
30096;SDS011;16915;51.466;3.610;2022-10-18T16:26:36;4.43;;;0.80;;
30096;SDS011;16915;51.466;3.610;2022-10-18T16:29:01;4.13;;;1.02;;
30096;SDS011;16915;51.466;3.610;2022-10-18T16:31:29;4.07;;;0.65;;
30096;SDS011;16915;51.466;3.610;2022-10-18T16:34:14;1.77;;;0.50;;
30096;SDS011;16915;51.466;3.610;2022-10-18T16:36:40;11.35;;;1.10;;
30096;SDS011;16915;51.466;3.610;2022-10-18T16:39:06;2.67;;;0.65;;
30096;SDS011;16915;51.466;3.610;2022-10-18T16:41:41;3.38;;;0.98;;
30096;SDS011;16915;51.466;3.610;2022-10-18T16:44:08;8.85;;;0.90;;
30096;SDS011;16915;51.466;3.610;2022-10-18T16:46:34;4.28;;;0.80;;
30096;SDS011;16915;51.466;3.610;2022-10-18T16:49:00;4.03;;;0.70;;
30096;SDS011;16915;51.466;3.610;2022-10-18T16:51:27;10.20;;;0.95;;
30096;SDS011;16915;51.466;3.610;2022-10-18T16:53:54;4.53;;;0.68;;
30096;SDS011;16915;51.466;3.610;2022-10-18T16:56:29;4.93;;;0.77;;
30096;SDS011;16915;51.466;3.610;2022-10-18T16:58:56;2.95;;;0.63;;
30096;SDS011;16915;51.466;3.610;2022-10-18T17:01:23;2.90;;;0.75;;
30096;SDS011;16915;51.466;3.610;2022-10-18T17:03:49;3.67;;;0.90;;
30096;SDS011;16915;51.466;3.610;2022-10-18T17:06:28;8.02;;;1.02;;
30096;SDS011;16915;51.466;3.610;2022-10-18T17:08:58;3.20;;;0.65;;
30096;SDS011;16915;51.466;3.610;2022-10-18T17:11:29;5.28;;;1.20;;
30096;SDS011;16915;51.466;3.610;2022-10-18T17:14:01;4.07;;;0.95;;
30096;SDS011;16915;51.466;3.610;2022-10-18T17:16:31;3.05;;;0.77;;
30096;SDS011;16915;51.466;3.610;2022-10-18T17:19:02;2.78;;;0.98;;
30096;SDS011;16915;51.466;3.610;2022-10-18T17:21:31;2.72;;;0.80;;
30096;SDS011;16915;51.466;3.610;2022-10-18T17:23:57;7.38;;;1.08;;
30096;SDS011;16915;51.466;3.610;2022-10-18T17:26:28;4.85;;;0.98;;
30096;SDS011;16915;51.466;3.610;2022-10-18T17:29:01;7.18;;;1.13;;
30096;SDS011;16915;51.466;3.610;2022-10-18T17:31:32;4.50;;;0.80;;
30096;SDS011;16915;51.466;3.610;2022-10-18T17:34:00;3.88;;;0.88;;
30096;SDS011;16915;51.466;3.610;2022-10-18T17:36:31;7.45;;;1.00;;
30096;SDS011;16915;51.466;3.610;2022-10-18T17:38:58;4.03;;;0.85;;
30096;SDS011;16915;51.466;3.610;2022-10-18T17:41:25;4.38;;;1.20;;
30096;SDS011;16915;51.466;3.610;2022-10-18T17:43:53;6.95;;;1.10;;
30096;SDS011;16915;51.466;3.610;2022-10-18T17:46:20;4.95;;;0.80;;
30096;SDS011;16915;51.466;3.610;2022-10-18T17:48:47;4.47;;;1.02;;
30096;SDS011;16915;51.466;3.610;2022-10-18T17:51:13;7.07;;;1.05;;
30096;SDS011;16915;51.466;3.610;2022-10-18T17:53:45;6.57;;;0.98;;
30096;SDS011;16915;51.466;3.610;2022-10-18T17:56:12;6.20;;;1.02;;
30096;SDS011;16915;51.466;3.610;2022-10-18T17:58:42;8.07;;;2.15;;
30096;SDS011;16915;51.466;3.610;2022-10-18T18:01:19;10.07;;;1.15;;
30096;SDS011;16915;51.466;3.610;2022-10-18T18:03:49;5.10;;;1.10;;
30096;SDS011;16915;51.466;3.610;2022-10-18T18:06:25;5.25;;;1.73;;
30096;SDS011;16915;51.466;3.610;2022-10-18T18:09:14;6.75;;;1.10;;
30096;SDS011;16915;51.466;3.610;2022-10-18T18:11:42;4.18;;;1.10;;
30096;SDS011;16915;51.466;3.610;2022-10-18T18:14:14;9.00;;;1.10;;
30096;SDS011;16915;51.466;3.610;2022-10-18T18:16:45;9.02;;;1.75;;
30096;SDS011;16915;51.466;3.610;2022-10-18T18:19:17;5.63;;;1.10;;
30096;SDS011;16915;51.466;3.610;2022-10-18T18:21:45;3.22;;;1.15;;
30096;SDS011;16915;51.466;3.610;2022-10-18T18:24:12;4.95;;;1.23;;
30096;SDS011;16915;51.466;3.610;2022-10-18T18:26:39;4.78;;;1.85;;
30096;SDS011;16915;51.466;3.610;2022-10-18T18:29:18;3.28;;;1.10;;
30096;SDS011;16915;51.466;3.610;2022-10-18T18:31:47;9.00;;;1.27;;
30096;SDS011;16915;51.466;3.610;2022-10-18T18:34:43;7.03;;;1.17;;
30096;SDS011;16915;51.466;3.610;2022-10-18T18:37:10;3.50;;;0.60;;
30096;SDS011;16915;51.466;3.610;2022-10-18T18:39:52;4.57;;;0.90;;
30096;SDS011;16915;51.466;3.610;2022-10-18T18:42:22;5.65;;;0.93;;
30096;SDS011;16915;51.466;3.610;2022-10-18T18:44:54;7.60;;;0.90;;
30096;SDS011;16915;51.466;3.610;2022-10-18T18:48:12;9.23;;;1.35;;
30096;SDS011;16915;51.466;3.610;2022-10-18T18:51:15;10.32;;;1.00;;
30096;SDS011;16915;51.466;3.610;2022-10-18T18:54:17;6.22;;;1.17;;
30096;SDS011;16915;51.466;3.610;2022-10-18T18:57:46;7.22;;;1.23;;
30096;SDS011;16915;51.466;3.610;2022-10-18T19:03:53;4.10;;;0.80;;
30096;SDS011;16915;51.466;3.610;2022-10-18T19:06:52;7.75;;;1.25;;
30096;SDS011;16915;51.466;3.610;2022-10-18T19:09:54;9.98;;;1.10;;
30096;SDS011;16915;51.466;3.610;2022-10-18T19:12:40;12.27;;;1.10;;
30096;SDS011;16915;51.466;3.610;2022-10-18T19:15:35;9.70;;;1.10;;
30096;SDS011;16915;51.466;3.610;2022-10-18T19:18:17;5.13;;;0.90;;
30096;SDS011;16915;51.466;3.610;2022-10-18T19:20:52;6.13;;;0.98;;
30096;SDS011;16915;51.466;3.610;2022-10-18T19:23:35;7.55;;;1.33;;
30096;SDS011;16915;51.466;3.610;2022-10-18T19:29:27;7.45;;;1.02;;
30096;SDS011;16915;51.466;3.610;2022-10-18T19:32:14;6.22;;;1.70;;
30096;SDS011;16915;51.466;3.610;2022-10-18T19:35:07;6.85;;;1.30;;
30096;SDS011;16915;51.466;3.610;2022-10-18T19:37:43;7.93;;;1.08;;
30096;SDS011;16915;51.466;3.610;2022-10-18T19:40:34;6.20;;;1.40;;
30096;SDS011;16915;51.466;3.610;2022-10-18T19:46:02;7.40;;;1.40;;
30096;SDS011;16915;51.466;3.610;2022-10-18T19:48:51;6.20;;;1.30;;
30096;SDS011;16915;51.466;3.610;2022-10-18T20:17:52;4.60;;;1.20;;
30096;SDS011;16915;51.466;3.610;2022-10-18T20:20:46;7.28;;;1.38;;
30096;SDS011;16915;51.466;3.610;2022-10-18T20:31:20;7.20;;;1.45;;
30096;SDS011;16915;51.466;3.610;2022-10-18T20:33:52;7.40;;;1.45;;
30096;SDS011;16915;51.466;3.610;2022-10-18T21:02:41;6.28;;;1.42;;
